Time;durP1;ratioP1;P1;durP2;ratioP2;P2;SDS_P1;SDS_P2;PMS_P1;PMS_P2;Temp;Humidity;BMP_temperature;BMP_pressure;BME280_temperature;BME280_humidity;BME280_pressure;Samples;Min_cycle;Max_cycle;Signal;HPM_P1;HPM_P2
2022/06/18 00:02:28;;;;;;;;;;;;;;;;;;4926638;28;19941;-92
2022/06/18 00:04:57;;;;;;;;;;;;;;;;;;4926804;28;20711;-92
2022/06/18 00:07:34;;;;;;;;;;;;;;;;;;4923218;28;19922;-92
2022/06/18 00:10:13;;;;;;;;;;;;;;;;;;4938379;28;20020;-93
2022/06/18 00:21:23;;;;;;;;;;;;;;;;;;4954563;28;19989;-93
2022/06/18 00:24:06;;;;;;;;;;;;;;;;;;4916169;29;19938;-94
2022/06/18 00:29:48;;;;;;;;;;;;;;;;;;4921985;29;19990;-93
2022/06/18 00:35:56;;;;;;;;;;;;;;;;;;4889565;29;19931;-94
2022/06/18 00:38:49;;;;;;;;;;;;;;;;;;4895983;29;19946;-93
2022/06/18 00:41:28;;;;;;;;;;;;;;;;;;4905113;29;20395;-94
2022/06/18 00:43:58;;;;;;;;;;;;;;;;;;4854692;29;19931;-93
2022/06/18 00:46:52;;;;;;;;;;;;;;;;;;;;;
2022/06/18 00:49:35;;;;;;;;;;;;;;;;;;;;;
2022/06/18 00:52:18;;;;;;;;;;;;;;;;;;4816757;29;20364;-94
2022/06/18 00:54:47;;;;;;;;;;;;;;;;;;4825170;29;20550;-93
2022/06/18 00:57:47;;;;;;;;;;;;;;;;;;;;;
2022/06/18 01:01:12;;;;;;;;;;;;;;;;;;4754961;30;20093;-94
2022/06/18 01:03:48;;;;;;;;;;;;;;;;;;;;;
2022/06/18 01:09:14;;;;;;;;;;;;;;;;;;4774454;29;19980;-94
2022/06/18 01:23:38;;;;;;;;;;;;;;;;;;4866701;29;20010;-93
2022/06/18 01:26:23;;;;;;;;;;;;;;;;;;;;;
2022/06/18 01:29:17;;;;;;;;;;;;;;;;;;4812905;29;19933;-93
2022/06/18 01:31:45;;;;;;;;;;;;;;;;;;4793008;29;19964;-94
2022/06/18 01:34:24;;;;;;;;;;;;;;;;;;4782166;29;19950;-93
2022/06/18 01:40:17;;;;;;;;;;;;;;;;;;4685159;30;20026;-93
2022/06/18 01:42:47;;;;;;;;;;;;;;;;;;4708881;30;19927;-94
2022/06/18 01:51:21;;;;;;;;;;;;;;;;;;4731533;30;19926;-95
2022/06/18 01:54:01;;;;;;;;;;;;;;;;;;4753162;29;20016;-95
2022/06/18 02:02:53;;;;;;;;;;;;;;;;;;;;;
2022/06/18 02:05:37;;;;;;;;;;;;;;;;;;4747310;29;20403;-95
2022/06/18 02:11:10;;;;;;;;;;;;;;;;;;;;;
2022/06/18 02:13:59;;;;;;;;;;;;;;;;;;4822870;29;20022;-95
2022/06/18 02:28:55;;;;;;;;;;;;;;;;;;4734420;30;19926;-94
2022/06/18 02:34:55;;;;;;;;;;;;;;;;;;;;;
2022/06/18 02:40:30;;;;;;;;;;;;;;;;;;4722727;30;20378;-94
2022/06/18 02:43:24;;;;;;;;;;;;;;;;;;;;;
2022/06/18 02:46:33;;;;;;;;;;;;;;;;;;;;;
2022/06/18 02:49:22;;;;;;;;;;;;;;;;;;4778618;29;20053;-94
2022/06/18 02:52:02;;;;;;;;;;;;;;;;;;4739713;30;19934;-94
2022/06/18 02:54:55;;;;;;;;;;;;;;;;;;4705254;30;19941;-93
2022/06/18 03:03:38;;;;;;;;;;;;;;;;;;4790914;29;19935;-94
2022/06/18 03:06:35;;;;;;;;;;;;;;;;;;;;;
2022/06/18 03:09:11;;;;;;;;;;;;;;;;;;4812891;29;19925;-94
2022/06/18 03:18:17;;;;;;;;;;;;;;;;;;4760809;29;19932;-94
2022/06/18 03:21:15;;;;;;;;;;;;;;;;;;4751365;30;20491;-94
2022/06/18 03:24:44;;;;;;;;;;;;;;;;;;;;;
2022/06/18 03:30:42;;;;;;;;;;;;;;;;;;4772685;29;20029;-94
2022/06/18 03:36:40;;;;;;;;;;;;;;;;;;4810232;29;19937;-94
2022/06/18 03:48:33;;;;;;;;;;;;;;;;;;4851832;29;19927;-94
2022/06/18 03:51:15;;;;;;;;;;;;;;;;;;4910078;28;19922;-94
2022/06/18 03:57:02;;;;;;;;;;;;;;;;;;4823780;29;19947;-94
2022/06/18 04:00:03;;;;;;;;;;;;;;;;;;;;;
2022/06/18 04:06:21;;;;;;;;;;;;;;;;;;;;;
2022/06/18 04:09:09;;;;;;;;;;;;;;;;;;4733578;30;20017;-95
2022/06/18 04:14:46;;;;;;;;;;;;;;;;;;;;;
2022/06/18 04:19:56;;;;;;;;;;;;;;;;;;4912398;28;19926;-87
2022/06/18 04:22:22;;;;;;;;;;;;;;;;;;4909474;29;20025;-87
2022/06/18 04:24:48;;;;;;;;;;;;;;;;;;4889199;29;20342;-87
2022/06/18 04:27:14;;;;;;;;;;;;;;;;;;4895407;29;19927;-87
2022/06/18 04:29:41;;;;;;;;;;;;;;;;;;4896021;29;20025;-87
2022/06/18 04:32:07;;;;;;;;;;;;;;;;;;4892592;29;21621;-87
2022/06/18 04:34:32;;;;;;;;;;;;;;;;;;4888207;29;19942;-87
2022/06/18 04:36:58;;;;;;;;;;;;;;;;;;4889818;29;19923;-87
2022/06/18 04:39:26;;;;;;;;;;;;;;;;;;4881057;29;20031;-87
2022/06/18 04:41:52;;;;;;;;;;;;;;;;;;4891119;29;19938;-87
2022/06/18 04:44:18;;;;;;;;;;;;;;;;;;4910759;29;19931;-87
2022/06/18 04:46:45;;;;;;;;;;;;;;;;;;4884375;29;19923;-87
2022/06/18 04:49:12;;;;;;;;;;;;;;;;;;4901595;29;20236;-87
2022/06/18 04:51:39;;;;;;;;;;;;;;;;;;4890038;29;19966;-86
2022/06/18 04:54:07;;;;;;;;;;;;;;;;;;4895244;29;20400;-87
2022/06/18 04:56:34;;;;;;;;;;;;;;;;;;4893944;29;20298;-87
2022/06/18 04:59:00;;;;;;;;;;;;;;;;;;4895750;29;19988;-87
2022/06/18 05:01:26;;;;;;;;;;;;;;;;;;4877356;29;19935;-87
2022/06/18 05:03:52;;;;;;;;;;;;;;;;;;4891104;29;19927;-87
2022/06/18 05:06:19;;;;;;;;;;;;;;;;;;4895292;29;20338;-87
2022/06/18 05:08:47;;;;;;;;;;;;;;;;;;4879080;29;19939;-87
2022/06/18 05:11:14;;;;;;;;;;;;;;;;;;4894228;29;19966;-87
2022/06/18 05:13:40;;;;;;;;;;;;;;;;;;4890080;29;19924;-87
2022/06/18 05:16:06;;;;;;;;;;;;;;;;;;4892654;29;20018;-87
2022/06/18 05:18:32;;;;;;;;;;;;;;;;;;4890228;29;20022;-87
2022/06/18 05:20:58;;;;;;;;;;;;;;;;;;4892805;29;20002;-87
2022/06/18 05:23:24;;;;;;;;;;;;;;;;;;4893304;29;19938;-87
2022/06/18 05:25:50;;;;;;;;;;;;;;;;;;4893065;29;20072;-87
2022/06/18 05:28:17;;;;;;;;;;;;;;;;;;4897608;29;19931;-87
2022/06/18 05:30:43;;;;;;;;;;;;;;;;;;4893220;29;20344;-87
2022/06/18 05:33:14;;;;;;;;;;;;;;;;;;4909343;29;19919;-88
2022/06/18 05:35:41;;;;;;;;;;;;;;;;;;4894612;29;20701;-87
2022/06/18 05:38:07;;;;;;;;;;;;;;;;;;4894182;29;19930;-87
2022/06/18 05:40:33;;;;;;;;;;;;;;;;;;4889559;29;19989;-87
2022/06/18 05:42:59;;;;;;;;;;;;;;;;;;4889609;29;19946;-87
2022/06/18 05:45:25;;;;;;;;;;;;;;;;;;4895745;29;19927;-86
2022/06/18 05:47:51;;;;;;;;;;;;;;;;;;4879736;29;20302;-87
2022/06/18 05:50:16;;;;;;;;;;;;;;;;;;4898196;29;20365;-87
2022/06/18 05:52:43;;;;;;;;;;;;;;;;;;4887028;29;19931;-87
2022/06/18 05:55:10;;;;;;;;;;;;;;;;;;4880785;29;19950;-87
2022/06/18 05:57:37;;;;;;;;;;;;;;;;;;4883063;29;19928;-87
2022/06/18 06:00:05;;;;;;;;;;;;;;;;;;4898105;29;19927;-87
2022/06/18 06:02:33;;;;;;;;;;;;;;;;;;4888206;29;20296;-87
2022/06/18 06:05:00;;;;;;;;;;;;;;;;;;4896794;29;19923;-86
2022/06/18 06:07:26;;;;;;;;;;;;;;;;;;4890476;29;19931;-86
2022/06/18 06:12:46;;;;;;;;;;;;;;;;;;4888988;29;20354;-86
2022/06/18 06:15:13;;;;;;;;;;;;;;;;;;4893508;29;20010;-86
2022/06/18 06:17:39;;;;;;;;;;;;;;;;;;4893021;29;19975;-86
2022/06/18 06:20:06;;;;;;;;;;;;;;;;;;4895536;29;19935;-86
2022/06/18 06:22:35;;;;;;;;;;;;;;;;;;4889881;29;19938;-87
2022/06/18 06:25:05;;;;;;;;;;;;;;;;;;4897039;29;19993;-87
2022/06/18 06:27:32;;;;;;;;;;;;;;;;;;4878802;29;20014;-87
2022/06/18 06:30:02;;;;;;;;;;;;;;;;;;4899927;29;19931;-87
2022/06/18 06:32:28;;;;;;;;;;;;;;;;;;4884299;29;19927;-86
2022/06/18 06:34:54;;;;;;;;;;;;;;;;;;4894532;29;19935;-87
2022/06/18 06:37:21;;;;;;;;;;;;;;;;;;4889063;29;19969;-87
2022/06/18 06:39:49;;;;;;;;;;;;;;;;;;4886514;29;19931;-87
2022/06/18 06:42:16;;;;;;;;;;;;;;;;;;4892892;29;19923;-87
2022/06/18 06:44:42;;;;;;;;;;;;;;;;;;4891599;29;19923;-87
2022/06/18 06:47:09;;;;;;;;;;;;;;;;;;4877422;29;19987;-87
2022/06/18 06:49:45;;;;;;;;;;;;;;;;;;4897491;29;19982;-86
2022/06/18 06:52:12;;;;;;;;;;;;;;;;;;4891361;29;20422;-87
2022/06/18 06:54:38;;;;;;;;;;;;;;;;;;4882637;29;19962;-87
2022/06/18 06:59:49;;;;;;;;;;;;;;;;;;4894247;29;19938;-87
2022/06/18 07:02:21;;;;;;;;;;;;;;;;;;4898535;29;20291;-87
2022/06/18 07:04:48;;;;;;;;;;;;;;;;;;4895167;29;19923;-87
2022/06/18 07:07:15;;;;;;;;;;;;;;;;;;4893290;29;20286;-87
2022/06/18 07:09:42;;;;;;;;;;;;;;;;;;4896561;29;20397;-87
2022/06/18 07:12:10;;;;;;;;;;;;;;;;;;4886425;29;19928;-87
2022/06/18 07:14:36;;;;;;;;;;;;;;;;;;4882858;29;19931;-87
2022/06/18 07:17:04;;;;;;;;;;;;;;;;;;4886253;29;19930;-87
2022/06/18 07:19:30;;;;;;;;;;;;;;;;;;4898476;29;19931;-87
2022/06/18 07:21:56;;;;;;;;;;;;;;;;;;4879232;29;20450;-87
2022/06/18 07:24:22;;;;;;;;;;;;;;;;;;4862109;29;20578;-86
2022/06/18 07:26:49;;;;;;;;;;;;;;;;;;4858589;29;19923;-86
2022/06/18 07:29:14;;;;;;;;;;;;;;;;;;4864098;29;19927;-87
2022/06/18 07:31:42;;;;;;;;;;;;;;;;;;4858162;29;20041;-87
2022/06/18 07:34:08;;;;;;;;;;;;;;;;;;4861730;29;20761;-87
2022/06/18 07:36:34;;;;;;;;;;;;;;;;;;4877042;29;19927;-87
2022/06/18 07:39:00;;;;;;;;;;;;;;;;;;4878363;29;19928;-87
2022/06/18 07:41:30;;;;;;;;;;;;;;;;;;4858947;29;20363;-87
2022/06/18 07:43:56;;;;;;;;;;;;;;;;;;4875644;29;20018;-87
2022/06/18 07:46:22;;;;;;;;;;;;;;;;;;4840884;29;19931;-87
2022/06/18 07:48:49;;;;;;;;;;;;;;;;;;4871753;29;19981;-85
2022/06/18 07:51:16;;;;;;;;;;;;;;;;;;4877405;29;19931;-84
2022/06/18 07:53:43;;;;;;;;;;;;;;;;;;4903231;29;19938;-84
2022/06/18 07:56:09;;;;;;;;;;;;;;;;;;4896524;29;19947;-84
2022/06/18 07:58:35;;;;;;;;;;;;;;;;;;4893521;29;19931;-84
2022/06/18 08:01:01;;;;;;;;;;;;;;;;;;4897930;29;19934;-85
2022/06/18 08:03:27;;;;;;;;;;;;;;;;;;4903537;29;19962;-85
2022/06/18 08:05:53;;;;;;;;;;;;;;;;;;4904113;29;19983;-85
2022/06/18 08:08:20;;;;;;;;;;;;;;;;;;4910328;29;19923;-85
2022/06/18 08:10:46;;;;;;;;;;;;;;;;;;4898449;29;19927;-85
2022/06/18 08:13:12;;;;;;;;;;;;;;;;;;4896615;29;19982;-84
2022/06/18 08:15:38;;;;;;;;;;;;;;;;;;4893119;29;20015;-85
2022/06/18 08:18:04;;;;;;;;;;;;;;;;;;4897615;29;19936;-85
2022/06/18 08:20:30;;;;;;;;;;;;;;;;;;4896946;29;19923;-85
2022/06/18 08:22:57;;;;;;;;;;;;;;;;;;4906266;29;19930;-85
2022/06/18 08:25:23;;;;;;;;;;;;;;;;;;4894404;29;20383;-88
2022/06/18 08:27:49;;;;;;;;;;;;;;;;;;4890775;29;19983;-88
2022/06/18 08:30:18;;;;;;;;;;;;;;;;;;4891400;29;19930;-87
2022/06/18 08:32:44;;;;;;;;;;;;;;;;;;4890304;29;19979;-88
2022/06/18 08:35:10;;;;;;;;;;;;;;;;;;4900347;29;19935;-87
2022/06/18 08:37:36;;;;;;;;;;;;;;;;;;4887559;29;20346;-87
2022/06/18 08:40:02;;;;;;;;;;;;;;;;;;4892917;29;19927;-88
2022/06/18 08:42:31;;;;;;;;;;;;;;;;;;4889427;29;19926;-88
2022/06/18 08:44:57;;;;;;;;;;;;;;;;;;4896353;29;20413;-87
2022/06/18 08:47:23;;;;;;;;;;;;;;;;;;4899611;29;19927;-88
2022/06/18 08:49:49;;;;;;;;;;;;;;;;;;4891462;29;19931;-88
2022/06/18 08:52:18;;;;;;;;;;;;;;;;;;4880391;29;19939;-88
2022/06/18 08:54:44;;;;;;;;;;;;;;;;;;4891276;29;19927;-87
2022/06/18 08:57:10;;;;;;;;;;;;;;;;;;4893850;29;19923;-87
2022/06/18 08:59:36;;;;;;;;;;;;;;;;;;4896032;29;20300;-88
2022/06/18 09:02:02;;;;;;;;;;;;;;;;;;4876994;29;19931;-88
2022/06/18 09:04:28;;;;;;;;;;;;;;;;;;4898706;29;19931;-87
2022/06/18 09:06:56;;;;;;;;;;;;;;;;;;4875425;29;20339;-88
2022/06/18 09:09:22;;;;;;;;;;;;;;;;;;4890470;29;19956;-87
2022/06/18 09:11:48;;;;;;;;;;;;;;;;;;4896826;29;19954;-88
2022/06/18 09:14:14;;;;;;;;;;;;;;;;;;4895117;29;20336;-88
2022/06/18 09:16:43;;;;;;;;;;;;;;;;;;4888545;29;19977;-88
2022/06/18 09:19:09;;;;;;;;;;;;;;;;;;4893938;29;19967;-87
2022/06/18 09:21:35;;;;;;;;;;;;;;;;;;4892131;29;19930;-88
2022/06/18 09:24:02;;;;;;;;;;;;;;;;;;4893780;29;20363;-88
2022/06/18 09:26:28;;;;;;;;;;;;;;;;;;4891980;29;19963;-89
2022/06/18 09:28:54;;;;;;;;;;;;;;;;;;4879013;29;20017;-88
2022/06/18 09:31:20;;;;;;;;;;;;;;;;;;4890360;29;19931;-87
2022/06/18 09:33:46;;;;;;;;;;;;;;;;;;4888531;29;19988;-88
2022/06/18 09:36:12;;;;;;;;;;;;;;;;;;4880949;29;19993;-87
2022/06/18 09:38:38;;;;;;;;;;;;;;;;;;4886943;29;21896;-88
2022/06/18 09:41:03;;;;;;;;;;;;;;;;;;4890177;29;19927;-87
2022/06/18 09:43:29;;;;;;;;;;;;;;;;;;4891712;29;20389;-88
2022/06/18 09:45:55;;;;;;;;;;;;;;;;;;4889328;29;20294;-88
2022/06/18 09:48:21;;;;;;;;;;;;;;;;;;4892929;29;19931;-88
2022/06/18 09:50:47;;;;;;;;;;;;;;;;;;4884588;29;19927;-88
2022/06/18 09:53:13;;;;;;;;;;;;;;;;;;4899161;29;19990;-88
2022/06/18 09:55:40;;;;;;;;;;;;;;;;;;4885220;29;19936;-85
2022/06/18 09:58:14;;;;;;;;;;;;;;;;;;4890944;29;19930;-84
2022/06/18 10:00:40;;;;;;;;;;;;;;;;;;4866815;29;19931;-84
2022/06/18 10:03:06;;;;;;;;;;;;;;;;;;4889690;29;19951;-85
2022/06/18 10:08:16;;;;;;;;;;;;;;;;;;4888535;29;19931;-86
2022/06/18 10:10:42;;;;;;;;;;;;;;;;;;4884640;29;19931;-86
2022/06/18 10:13:08;;;;;;;;;;;;;;;;;;4887426;29;20353;-86
2022/06/18 10:15:34;;;;;;;;;;;;;;;;;;4885992;29;20719;-85
2022/06/18 10:18:00;;;;;;;;;;;;;;;;;;4887766;29;20666;-87
2022/06/18 10:20:27;;;;;;;;;;;;;;;;;;4888598;29;20375;-85
2022/06/18 10:22:53;;;;;;;;;;;;;;;;;;4886388;29;20022;-86
2022/06/18 10:25:19;;;;;;;;;;;;;;;;;;4887648;29;20003;-86
2022/06/18 10:27:45;;;;;;;;;;;;;;;;;;4883974;29;20022;-86
2022/06/18 10:30:11;;;;;;;;;;;;;;;;;;4890666;29;19927;-86
2022/06/18 10:32:37;;;;;;;;;;;;;;;;;;4889242;29;19962;-86
2022/06/18 10:35:03;;;;;;;;;;;;;;;;;;4893866;29;19935;-85
2022/06/18 10:37:29;;;;;;;;;;;;;;;;;;4874799;29;19934;-86
2022/06/18 10:39:55;;;;;;;;;;;;;;;;;;4866690;29;19931;-87
2022/06/18 10:42:21;;;;;;;;;;;;;;;;;;4873954;29;19981;-85
2022/06/18 10:44:47;;;;;;;;;;;;;;;;;;4888820;29;19931;-86
2022/06/18 10:47:15;;;;;;;;;;;;;;;;;;4899774;29;20413;-86
2022/06/18 10:49:41;;;;;;;;;;;;;;;;;;4895671;29;19939;-86
2022/06/18 10:52:07;;;;;;;;;;;;;;;;;;4895858;29;19927;-85
2022/06/18 10:54:33;;;;;;;;;;;;;;;;;;4891720;29;19974;-85
2022/06/18 10:56:59;;;;;;;;;;;;;;;;;;4885918;29;19931;-85
2022/06/18 10:59:25;;;;;;;;;;;;;;;;;;4896656;29;20503;-86
2022/06/18 11:01:51;;;;;;;;;;;;;;;;;;4896465;29;19931;-86
2022/06/18 11:04:17;;;;;;;;;;;;;;;;;;4904057;29;19938;-86
2022/06/18 11:06:43;;;;;;;;;;;;;;;;;;4892928;29;19923;-86
2022/06/18 11:09:09;;;;;;;;;;;;;;;;;;4880888;29;21419;-85
2022/06/18 11:11:36;;;;;;;;;;;;;;;;;;4880486;29;19923;-86
2022/06/18 11:14:02;;;;;;;;;;;;;;;;;;4882964;29;19927;-86
2022/06/18 11:16:28;;;;;;;;;;;;;;;;;;4891726;29;19976;-86
2022/06/18 11:18:54;;;;;;;;;;;;;;;;;;4891001;29;19935;-88
2022/06/18 11:21:20;;;;;;;;;;;;;;;;;;4890421;29;19931;-88
2022/06/18 11:23:46;;;;;;;;;;;;;;;;;;4886267;29;19930;-88
2022/06/18 11:26:12;;;;;;;;;;;;;;;;;;4893349;29;19964;-88
2022/06/18 11:28:40;;;;;;;;;;;;;;;;;;4883550;29;20350;-88
2022/06/18 11:31:06;;;;;;;;;;;;;;;;;;4882582;29;20537;-88
2022/06/18 11:33:32;;;;;;;;;;;;;;;;;;4878722;29;19934;-90
2022/06/18 11:35:58;;;;;;;;;;;;;;;;;;4882214;29;19931;-90
2022/06/18 11:38:24;;;;;;;;;;;;;;;;;;4887224;29;19931;-89
2022/06/18 11:40:50;;;;;;;;;;;;;;;;;;4892180;29;19981;-89
2022/06/18 11:43:16;;;;;;;;;;;;;;;;;;4892347;29;19931;-88
2022/06/18 11:45:42;;;;;;;;;;;;;;;;;;4895483;29;19923;-88
2022/06/18 11:48:08;;;;;;;;;;;;;;;;;;4899712;29;20306;-88
2022/06/18 11:50:34;;;;;;;;;;;;;;;;;;4894293;29;19923;-88
2022/06/18 11:53:00;;;;;;;;;;;;;;;;;;4894811;29;19934;-89
2022/06/18 11:55:26;;;;;;;;;;;;;;;;;;4881574;29;20006;-88
2022/06/18 11:57:52;;;;;;;;;;;;;;;;;;4897095;29;19970;-89
2022/06/18 12:00:18;;;;;;;;;;;;;;;;;;4899821;29;20304;-89
2022/06/18 12:02:44;;;;;;;;;;;;;;;;;;4893499;29;19928;-89
2022/06/18 12:05:10;;;;;;;;;;;;;;;;;;4898838;29;20421;-89
2022/06/18 12:07:36;;;;;;;;;;;;;;;;;;4893346;29;19937;-89
2022/06/18 12:10:01;;;;;;;;;;;;;;;;;;4898757;29;19966;-89
2022/06/18 12:12:27;;;;;;;;;;;;;;;;;;4883034;29;19927;-89
2022/06/18 12:14:53;;;;;;;;;;;;;;;;;;4890313;29;19934;-89
2022/06/18 12:17:19;;;;;;;;;;;;;;;;;;4899467;29;19970;-89
2022/06/18 12:19:45;;;;;;;;;;;;;;;;;;4895707;29;20014;-89
2022/06/18 12:22:11;;;;;;;;;;;;;;;;;;4901029;29;19927;-88
2022/06/18 12:24:37;;;;;;;;;;;;;;;;;;4893062;29;19966;-89
2022/06/18 12:27:06;;;;;;;;;;;;;;;;;;4900768;29;20418;-89
2022/06/18 12:29:32;;;;;;;;;;;;;;;;;;4892538;29;20034;-89
2022/06/18 12:31:59;;;;;;;;;;;;;;;;;;4898363;29;20430;-88
2022/06/18 12:34:25;;;;;;;;;;;;;;;;;;4896349;29;19927;-89
2022/06/18 12:36:51;;;;;;;;;;;;;;;;;;4891423;29;20690;-88
2022/06/18 12:39:17;;;;;;;;;;;;;;;;;;4901311;29;20368;-88
2022/06/18 12:41:43;;;;;;;;;;;;;;;;;;4896269;29;19990;-88
2022/06/18 12:44:09;;;;;;;;;;;;;;;;;;4888089;29;20037;-88
2022/06/18 12:46:36;;;;;;;;;;;;;;;;;;4894861;29;19927;-88
2022/06/18 12:49:03;;;;;;;;;;;;;;;;;;4893986;29;20014;-89
2022/06/18 12:51:29;;;;;;;;;;;;;;;;;;4896897;29;19927;-88
2022/06/18 12:53:55;;;;;;;;;;;;;;;;;;4900873;29;19983;-89
2022/06/18 12:56:21;;;;;;;;;;;;;;;;;;4900739;29;19931;-89
2022/06/18 12:58:47;;;;;;;;;;;;;;;;;;4896192;29;20685;-89
2022/06/18 13:01:13;;;;;;;;;;;;;;;;;;4900719;29;20366;-88
2022/06/18 13:03:39;;;;;;;;;;;;;;;;;;4891598;29;20386;-89
2022/06/18 13:06:05;;;;;;;;;;;;;;;;;;4893820;29;19937;-88
2022/06/18 13:08:31;;;;;;;;;;;;;;;;;;4891596;29;20018;-88
2022/06/18 13:10:57;;;;;;;;;;;;;;;;;;4895667;29;20351;-89
2022/06/18 13:13:26;;;;;;;;;;;;;;;;;;4876185;29;20749;-88
2022/06/18 13:15:52;;;;;;;;;;;;;;;;;;4894368;29;19935;-88
2022/06/18 13:18:18;;;;;;;;;;;;;;;;;;4885965;29;20057;-88
2022/06/18 13:20:44;;;;;;;;;;;;;;;;;;4879275;29;19931;-89
2022/06/18 13:28:39;;;;;;;;;;;;;;;;;;4895672;29;19933;-88
2022/06/18 13:31:05;;;;;;;;;;;;;;;;;;4900097;29;19927;-88
2022/06/18 13:33:31;;;;;;;;;;;;;;;;;;4889168;29;19931;-88
2022/06/18 13:35:57;;;;;;;;;;;;;;;;;;4899845;29;19934;-88
2022/06/18 13:38:23;;;;;;;;;;;;;;;;;;4882182;29;19930;-88
2022/06/18 13:40:49;;;;;;;;;;;;;;;;;;4894159;29;19935;-88
2022/06/18 13:43:15;;;;;;;;;;;;;;;;;;4895601;29;19934;-88
2022/06/18 13:45:41;;;;;;;;;;;;;;;;;;4895710;29;19931;-88
2022/06/18 13:48:07;;;;;;;;;;;;;;;;;;4896684;29;19927;-88
2022/06/18 13:50:33;;;;;;;;;;;;;;;;;;4897035;29;19924;-88
2022/06/18 13:52:59;;;;;;;;;;;;;;;;;;4896308;29;19990;-88
2022/06/18 13:55:25;;;;;;;;;;;;;;;;;;4898137;29;19927;-88
2022/06/18 13:57:51;;;;;;;;;;;;;;;;;;4893584;29;19939;-88
2022/06/18 14:00:18;;;;;;;;;;;;;;;;;;4896317;29;19975;-88
2022/06/18 14:02:44;;;;;;;;;;;;;;;;;;4892307;29;19984;-88
2022/06/18 14:05:10;;;;;;;;;;;;;;;;;;4876653;29;20410;-88
2022/06/18 14:07:36;;;;;;;;;;;;;;;;;;4876106;29;19924;-88
2022/06/18 14:10:02;;;;;;;;;;;;;;;;;;4892270;29;19950;-88
2022/06/18 14:12:31;;;;;;;;;;;;;;;;;;4877640;29;19924;-88
2022/06/18 14:14:57;;;;;;;;;;;;;;;;;;4873402;29;19949;-89
2022/06/18 14:17:23;;;;;;;;;;;;;;;;;;4884301;29;19923;-88
2022/06/18 14:19:49;;;;;;;;;;;;;;;;;;4883981;29;22676;-88
2022/06/18 14:22:15;;;;;;;;;;;;;;;;;;4894981;29;20366;-88
2022/06/18 14:24:41;;;;;;;;;;;;;;;;;;4891663;29;20002;-88
2022/06/18 14:27:07;;;;;;;;;;;;;;;;;;4883650;29;19927;-88
2022/06/18 14:29:33;;;;;;;;;;;;;;;;;;4892891;29;19967;-88
2022/06/18 14:31:59;;;;;;;;;;;;;;;;;;4886384;29;20014;-88
2022/06/18 14:34:25;;;;;;;;;;;;;;;;;;4898244;29;19927;-89
2022/06/18 14:36:51;;;;;;;;;;;;;;;;;;4879277;29;19942;-88
2022/06/18 14:39:18;;;;;;;;;;;;;;;;;;4885456;29;19930;-88
2022/06/18 14:41:44;;;;;;;;;;;;;;;;;;4879754;29;19924;-88
2022/06/18 14:44:12;;;;;;;;;;;;;;;;;;4888971;29;19923;-88
2022/06/18 14:46:38;;;;;;;;;;;;;;;;;;4900915;29;19927;-88
2022/06/18 14:49:04;;;;;;;;;;;;;;;;;;4901341;29;19994;-88
2022/06/18 14:51:30;;;;;;;;;;;;;;;;;;4897310;29;19927;-88
2022/06/18 14:53:56;;;;;;;;;;;;;;;;;;4900190;29;19923;-88
2022/06/18 14:56:22;;;;;;;;;;;;;;;;;;4904077;29;19927;-88
2022/06/18 14:58:48;;;;;;;;;;;;;;;;;;4895730;29;19930;-88
2022/06/18 15:01:14;;;;;;;;;;;;;;;;;;4894826;29;19982;-88
2022/06/18 15:03:40;;;;;;;;;;;;;;;;;;4896115;29;20009;-88
2022/06/18 15:06:06;;;;;;;;;;;;;;;;;;4901017;29;20127;-88
2022/06/18 15:08:32;;;;;;;;;;;;;;;;;;4897003;29;19927;-88
2022/06/18 15:10:58;;;;;;;;;;;;;;;;;;4903167;29;20358;-88
2022/06/18 15:13:24;;;;;;;;;;;;;;;;;;4904675;29;20701;-88
2022/06/18 15:21:04;;;;;;;;;;;;;;;;;;4903126;29;19935;-88
2022/06/18 15:26:12;;;;;;;;;;;;;;;;;;4899986;29;19930;-89
2022/06/18 15:28:38;;;;;;;;;;;;;;;;;;4879495;29;19931;-88
2022/06/18 15:31:03;;;;;;;;;;;;;;;;;;4901215;29;20334;-88
2022/06/18 15:33:29;;;;;;;;;;;;;;;;;;4882584;29;20411;-88
2022/06/18 15:35:55;;;;;;;;;;;;;;;;;;4897656;29;19950;-88
2022/06/18 15:38:21;;;;;;;;;;;;;;;;;;4900274;29;19979;-88
2022/06/18 15:40:51;;;;;;;;;;;;;;;;;;4893433;29;19927;-88
2022/06/18 15:43:17;;;;;;;;;;;;;;;;;;4910369;29;19931;-88
2022/06/18 15:45:43;;;;;;;;;;;;;;;;;;4893741;29;19927;-88
2022/06/18 15:48:09;;;;;;;;;;;;;;;;;;4899662;29;20371;-88
2022/06/18 15:50:35;;;;;;;;;;;;;;;;;;4899415;29;20287;-88
2022/06/18 15:53:01;;;;;;;;;;;;;;;;;;4899859;29;20019;-88
2022/06/18 15:55:27;;;;;;;;;;;;;;;;;;4898429;29;19951;-88
2022/06/18 15:57:53;;;;;;;;;;;;;;;;;;4879452;29;19923;-88
2022/06/18 16:00:19;;;;;;;;;;;;;;;;;;4894207;29;20741;-88
2022/06/18 16:02:45;;;;;;;;;;;;;;;;;;4881768;29;20304;-88
2022/06/18 16:05:11;;;;;;;;;;;;;;;;;;4896849;29;19931;-88
2022/06/18 16:07:36;;;;;;;;;;;;;;;;;;4892116;29;19930;-88
2022/06/18 16:10:02;;;;;;;;;;;;;;;;;;4886433;29;20018;-87
2022/06/18 16:12:28;;;;;;;;;;;;;;;;;;4898176;29;19931;-88
2022/06/18 16:14:58;;;;;;;;;;;;;;;;;;4881280;29;19934;-88
2022/06/18 16:17:24;;;;;;;;;;;;;;;;;;4881012;29;19927;-88
2022/06/18 16:19:50;;;;;;;;;;;;;;;;;;4882731;29;24545;-88
2022/06/18 16:22:16;;;;;;;;;;;;;;;;;;4895823;29;20074;-88
2022/06/18 16:24:42;;;;;;;;;;;;;;;;;;4897148;29;20009;-88
2022/06/18 16:27:07;;;;;;;;;;;;;;;;;;4900538;29;19924;-88
2022/06/18 16:29:33;;;;;;;;;;;;;;;;;;4893193;29;19923;-88
2022/06/18 16:31:59;;;;;;;;;;;;;;;;;;4896831;29;19927;-88
2022/06/18 16:34:25;;;;;;;;;;;;;;;;;;4898645;29;19923;-88
2022/06/18 16:36:51;;;;;;;;;;;;;;;;;;4893823;29;19941;-88
2022/06/18 16:39:17;;;;;;;;;;;;;;;;;;4882980;29;20013;-88
2022/06/18 16:41:44;;;;;;;;;;;;;;;;;;4894129;29;19927;-88
2022/06/18 16:44:10;;;;;;;;;;;;;;;;;;4898699;29;20021;-88
2022/06/18 16:46:36;;;;;;;;;;;;;;;;;;4895579;29;20507;-88
2022/06/18 16:49:02;;;;;;;;;;;;;;;;;;4885612;29;20327;-88
2022/06/18 16:51:31;;;;;;;;;;;;;;;;;;4898068;29;20404;-88
2022/06/18 16:53:57;;;;;;;;;;;;;;;;;;4885720;29;20291;-88
2022/06/18 16:56:23;;;;;;;;;;;;;;;;;;4881425;29;19927;-88
2022/06/18 16:58:49;;;;;;;;;;;;;;;;;;4893604;29;19935;-88
2022/06/18 17:01:15;;;;;;;;;;;;;;;;;;4897713;29;19927;-88
2022/06/18 17:03:41;;;;;;;;;;;;;;;;;;4894838;29;19929;-88
2022/06/18 17:06:07;;;;;;;;;;;;;;;;;;4881370;29;20014;-88
2022/06/18 17:08:34;;;;;;;;;;;;;;;;;;4895334;29;20079;-87
2022/06/18 17:11:00;;;;;;;;;;;;;;;;;;4900081;29;20382;-88
2022/06/18 17:13:26;;;;;;;;;;;;;;;;;;4895312;29;19927;-88
2022/06/18 17:15:52;;;;;;;;;;;;;;;;;;4876999;29;19935;-88
2022/06/18 17:18:18;;;;;;;;;;;;;;;;;;4890757;29;19957;-88
2022/06/18 17:20:44;;;;;;;;;;;;;;;;;;4892681;29;20013;-88
2022/06/18 17:23:10;;;;;;;;;;;;;;;;;;4884223;29;20320;-88
2022/06/18 17:31:09;;;;;;;;;;;;;;;;;;4894662;29;19974;-88
2022/06/18 17:33:36;;;;;;;;;;;;;;;;;;4894316;29;19967;-87
2022/06/18 17:36:02;;;;;;;;;;;;;;;;;;4892031;29;19959;-88
2022/06/18 17:38:28;;;;;;;;;;;;;;;;;;4896647;29;20017;-88
2022/06/18 17:41:03;;;;;;;;;;;;;;;;;;4897757;29;20027;-88
2022/06/18 17:43:29;;;;;;;;;;;;;;;;;;4896437;29;19934;-87
2022/06/18 17:45:56;;;;;;;;;;;;;;;;;;4897494;29;19931;-87
2022/06/18 17:48:22;;;;;;;;;;;;;;;;;;4885038;29;20034;-88
2022/06/18 17:50:48;;;;;;;;;;;;;;;;;;4871760;29;19935;-87
2022/06/18 17:53:14;;;;;;;;;;;;;;;;;;4882305;29;20025;-88
2022/06/18 17:55:40;;;;;;;;;;;;;;;;;;4897286;29;19931;-87
2022/06/18 17:58:06;;;;;;;;;;;;;;;;;;4895587;29;19933;-87
2022/06/18 18:00:32;;;;;;;;;;;;;;;;;;4892891;29;20013;-87
2022/06/18 18:02:57;;;;;;;;;;;;;;;;;;4889352;29;19935;-87
2022/06/18 18:05:23;;;;;;;;;;;;;;;;;;4892941;29;19927;-87
2022/06/18 18:07:49;;;;;;;;;;;;;;;;;;4887056;29;20010;-87
2022/06/18 18:10:15;;;;;;;;;;;;;;;;;;4894556;29;19923;-87
2022/06/18 18:12:41;;;;;;;;;;;;;;;;;;4894522;29;19928;-87
2022/06/18 18:15:07;;;;;;;;;;;;;;;;;;4904378;29;20305;-87
2022/06/18 18:17:34;;;;;;;;;;;;;;;;;;4881700;29;20029;-87
2022/06/18 18:20:00;;;;;;;;;;;;;;;;;;4906286;29;19927;-87
2022/06/18 18:22:26;;;;;;;;;;;;;;;;;;4900672;29;19974;-88
2022/06/18 18:24:52;;;;;;;;;;;;;;;;;;4881829;29;20438;-87
2022/06/18 18:27:18;;;;;;;;;;;;;;;;;;4885754;29;19970;-87
2022/06/18 18:29:44;;;;;;;;;;;;;;;;;;4899963;29;19974;-87
2022/06/18 18:32:10;;;;;;;;;;;;;;;;;;4898447;29;20007;-87
2022/06/18 18:34:36;;;;;;;;;;;;;;;;;;4892423;29;20372;-87
2022/06/18 18:37:02;;;;;;;;;;;;;;;;;;4892024;29;19927;-87
2022/06/18 18:39:28;;;;;;;;;;;;;;;;;;4887144;29;19930;-87
2022/06/18 18:41:54;;;;;;;;;;;;;;;;;;4891500;29;20379;-86
2022/06/18 18:44:20;;;;;;;;;;;;;;;;;;4886112;29;19931;-87
2022/06/18 18:46:46;;;;;;;;;;;;;;;;;;4897160;29;19971;-87
2022/06/18 18:49:12;;;;;;;;;;;;;;;;;;4885404;29;19927;-87
2022/06/18 18:51:38;;;;;;;;;;;;;;;;;;4892130;29;19927;-82
2022/06/18 18:54:04;;;;;;;;;;;;;;;;;;4889218;29;20409;-84
2022/06/18 18:56:30;;;;;;;;;;;;;;;;;;4890790;29;19983;-83
2022/06/18 18:58:56;;;;;;;;;;;;;;;;;;4891247;29;19949;-83
2022/06/18 19:01:24;;;;;;;;;;;;;;;;;;4891822;29;20319;-83
2022/06/18 19:03:50;;;;;;;;;;;;;;;;;;4893536;29;19931;-84
2022/06/18 19:06:17;;;;;;;;;;;;;;;;;;4897934;29;19948;-84
2022/06/18 19:08:51;;;;;;;;;;;;;;;;;;4894473;29;19938;-84
2022/06/18 19:13:02;;;;;;;;;;;;;;;;;;4891257;29;19970;-84
2022/06/18 19:14:26;;;;;;;;;;;;;;;;;;4891489;29;20397;-84
2022/06/18 19:16:52;;;;;;;;;;;;;;;;;;4876386;29;19942;-84
2022/06/18 19:25:05;;;;;;;;;;;;;;;;;;4930971;28;19934;-86
2022/06/18 19:27:31;;;;;;;;;;;;;;;;;;4924244;28;20279;-86